Time;durP1;ratioP1;P1;durP2;ratioP2;P2;SDS_P1;SDS_P2;PMS_P1;PMS_P2;Temp;Humidity;BMP_temperature;BMP_pressure;BME280_temperature;BME280_humidity;BME280_pressure;Samples;Min_cycle;Max_cycle;Signal;HPM_P1;HPM_P2
2023/06/15 00:00:20;;;;;;;6.50;5.67;;;;;;;;;;6286756;28;20204;-65
2023/06/15 00:03:21;;;;;;;6.13;5.53;;;;;;;;;;6294649;28;20182;-65
2023/06/15 00:06:22;;;;;;;7.00;5.80;;;;;;;;;;6287433;28;20280;-65
2023/06/15 00:09:23;;;;;;;7.53;6.07;;;;;;;;;;6276878;28;20197;-64
2023/06/15 00:12:24;;;;;;;9.30;5.80;;;;;;;;;;6281310;28;20240;-64
2023/06/15 00:15:27;;;;;;;7.97;5.90;;;;;;;;;;6282717;28;20221;-64
2023/06/15 00:18:28;;;;;;;6.63;5.93;;;;;;;;;;6287079;28;20267;-65
2023/06/15 00:21:33;;;;;;;6.50;5.67;;;;;;;;;;6291833;28;20191;-65
2023/06/15 00:24:34;;;;;;;5.90;5.40;;;;;;;;;;6294399;28;20197;-65
2023/06/15 00:27:35;;;;;;;6.53;5.03;;;;;;;;;;6269557;28;20185;-65
2023/06/15 00:30:36;;;;;;;7.10;5.47;;;;;;;;;;6266449;28;20228;-65
2023/06/15 00:33:37;;;;;;;6.87;5.87;;;;;;;;;;6281389;28;20185;-65
2023/06/15 00:36:39;;;;;;;8.13;6.03;;;;;;;;;;6274345;28;20239;-65
2023/06/15 00:39:40;;;;;;;6.87;6.23;;;;;;;;;;6284029;28;20196;-65
2023/06/15 00:42:41;;;;;;;8.77;6.23;;;;;;;;;;6287186;28;20204;-65
2023/06/15 00:45:42;;;;;;;5.90;5.20;;;;;;;;;;6275857;28;20245;-65
2023/06/15 00:48:43;;;;;;;6.30;5.70;;;;;;;;;;6288130;28;20193;-65
2023/06/15 00:51:44;;;;;;;6.17;5.67;;;;;;;;;;6271663;28;20201;-65
2023/06/15 00:54:46;;;;;;;8.73;5.57;;;;;;;;;;6280307;28;20279;-65
2023/06/15 00:57:49;;;;;;;6.57;5.73;;;;;;;;;;6303192;28;20229;-65
2023/06/15 01:00:51;;;;;;;8.47;6.43;;;;;;;;;;6282687;28;20242;-65
2023/06/15 01:03:54;;;;;;;6.93;5.67;;;;;;;;;;6275303;28;20197;-65
2023/06/15 01:07:02;;;;;;;7.67;6.03;;;;;;;;;;6274627;28;20228;-65
2023/06/15 01:10:04;;;;;;;7.93;5.73;;;;;;;;;;6275649;28;20194;-65
2023/06/15 01:13:07;;;;;;;8.50;5.87;;;;;;;;;;6293781;28;20194;-65
2023/06/15 01:16:10;;;;;;;6.73;5.27;;;;;;;;;;6292671;28;20213;-65
2023/06/15 01:19:19;;;;;;;8.87;5.67;;;;;;;;;;6281527;28;20193;-65
2023/06/15 01:22:24;;;;;;;6.20;5.23;;;;;;;;;;6296378;28;20200;-65
2023/06/15 01:25:44;;;;;;;6.50;5.23;;;;;;;;;;6289890;28;20224;-65
2023/06/15 01:28:47;;;;;;;7.73;6.03;;;;;;;;;;6293191;28;20201;-65
2023/06/15 01:31:52;;;;;;;11.07;6.50;;;;;;;;;;6288151;28;20213;-65
2023/06/15 01:34:54;;;;;;;6.67;5.83;;;;;;;;;;6274099;28;20194;-65
2023/06/15 01:37:55;;;;;;;6.40;5.50;;;;;;;;;;6287532;28;20202;-65
2023/06/15 01:40:57;;;;;;;6.50;6.00;;;;;;;;;;6273209;28;20192;-65
2023/06/15 01:43:59;;;;;;;6.43;5.77;;;;;;;;;;6288534;28;20190;-65
2023/06/15 01:47:00;;;;;;;8.57;6.57;;;;;;;;;;6280872;28;20193;-64
2023/06/15 01:50:01;;;;;;;8.73;5.80;;;;;;;;;;6272525;28;20189;-64
2023/06/15 01:53:03;;;;;;;6.70;6.00;;;;;;;;;;6281965;28;20254;-64
2023/06/15 01:56:04;;;;;;;6.47;5.67;;;;;;;;;;6289352;28;20205;-64
2023/06/15 01:59:05;;;;;;;7.30;6.60;;;;;;;;;;6275838;28;20185;-64
2023/06/15 02:02:06;;;;;;;6.93;6.33;;;;;;;;;;6282111;28;20185;-64
2023/06/15 02:05:08;;;;;;;8.30;6.23;;;;;;;;;;6282892;28;20185;-64
2023/06/15 02:08:12;;;;;;;7.47;6.23;;;;;;;;;;6285954;28;20239;-64
2023/06/15 02:11:15;;;;;;;7.57;6.20;;;;;;;;;;6276392;28;20186;-64
2023/06/15 02:14:17;;;;;;;6.33;5.73;;;;;;;;;;6291757;28;20196;-64
2023/06/15 02:17:19;;;;;;;7.43;5.70;;;;;;;;;;6279209;28;20313;-64
2023/06/15 02:20:20;;;;;;;6.60;5.60;;;;;;;;;;6298134;28;20189;-64
2023/06/15 02:23:21;;;;;;;7.90;6.20;;;;;;;;;;6291093;28;20185;-64
2023/06/15 02:26:22;;;;;;;6.33;5.77;;;;;;;;;;6292166;28;20278;-64
2023/06/15 02:29:23;;;;;;;7.43;5.27;;;;;;;;;;6284592;28;20193;-64
2023/06/15 02:32:37;;;;;;;11.27;6.37;;;;;;;;;;6272523;28;20326;-64
2023/06/15 02:35:38;;;;;;;7.67;5.93;;;;;;;;;;6282247;28;20271;-64
2023/06/15 02:38:40;;;;;;;9.17;5.90;;;;;;;;;;6285581;28;20220;-64
2023/06/15 02:41:41;;;;;;;8.07;6.37;;;;;;;;;;6273166;28;20185;-64
2023/06/15 02:44:42;;;;;;;6.20;5.60;;;;;;;;;;6285341;28;20311;-64
2023/06/15 02:47:43;;;;;;;5.93;5.33;;;;;;;;;;6285738;28;20208;-64
2023/06/15 02:50:44;;;;;;;6.37;5.77;;;;;;;;;;6278652;28;20205;-64
2023/06/15 02:53:45;;;;;;;7.57;5.70;;;;;;;;;;6285571;28;20224;-64
2023/06/15 02:56:46;;;;;;;6.23;5.63;;;;;;;;;;6277368;28;20217;-64
2023/06/15 02:59:49;;;;;;;7.17;5.63;;;;;;;;;;6277994;28;20189;-64
2023/06/15 03:02:52;;;;;;;10.17;6.00;;;;;;;;;;6277702;28;20190;-64
2023/06/15 03:05:53;;;;;;;7.07;6.30;;;;;;;;;;6277071;28;20203;-64
2023/06/15 03:08:54;;;;;;;6.70;5.47;;;;;;;;;;6284604;28;20193;-64
2023/06/15 03:11:55;;;;;;;8.67;6.30;;;;;;;;;;6283817;28;20200;-64
2023/06/15 03:14:56;;;;;;;8.23;6.57;;;;;;;;;;6277883;28;20193;-64
2023/06/15 03:17:57;;;;;;;6.27;5.67;;;;;;;;;;6296711;28;20235;-64
2023/06/15 03:20:58;;;;;;;8.73;6.17;;;;;;;;;;6269003;28;20219;-64
2023/06/15 03:24:00;;;;;;;11.87;7.07;;;;;;;;;;6283638;28;20189;-64
2023/06/15 03:27:01;;;;;;;6.40;5.83;;;;;;;;;;6286379;28;20250;-64
2023/06/15 03:30:05;;;;;;;11.03;6.00;;;;;;;;;;6283549;28;20293;-64
2023/06/15 03:33:06;;;;;;;8.83;6.20;;;;;;;;;;6282854;28;20204;-64
2023/06/15 03:36:07;;;;;;;8.33;6.67;;;;;;;;;;6288008;28;20205;-64
2023/06/15 03:39:08;;;;;;;6.90;6.20;;;;;;;;;;6281759;28;20194;-64
2023/06/15 03:42:10;;;;;;;6.83;6.23;;;;;;;;;;6284702;28;20194;-64
2023/06/15 03:45:11;;;;;;;7.63;5.97;;;;;;;;;;6283869;28;20314;-64
2023/06/15 03:48:12;;;;;;;9.93;6.03;;;;;;;;;;6273377;28;20185;-64
2023/06/15 03:51:13;;;;;;;6.80;6.20;;;;;;;;;;6275577;28;20197;-64
2023/06/15 03:54:14;;;;;;;7.53;6.20;;;;;;;;;;6272051;28;20211;-64
2023/06/15 03:57:15;;;;;;;7.57;6.50;;;;;;;;;;6299348;28;20209;-64
2023/06/15 04:00:16;;;;;;;6.57;5.90;;;;;;;;;;6288400;28;20201;-64
2023/06/15 04:03:17;;;;;;;7.30;6.60;;;;;;;;;;6270252;28;20193;-65
2023/06/15 04:06:21;;;;;;;7.07;6.37;;;;;;;;;;6276344;28;20225;-65
2023/06/15 04:09:22;;;;;;;7.27;6.27;;;;;;;;;;6275790;28;20205;-65
2023/06/15 04:12:23;;;;;;;7.33;6.20;;;;;;;;;;6279381;28;20189;-65
2023/06/15 04:15:24;;;;;;;7.63;6.83;;;;;;;;;;6278753;28;20216;-64
2023/06/15 04:18:25;;;;;;;8.67;7.30;;;;;;;;;;6286947;28;20197;-65
2023/06/15 04:21:26;;;;;;;6.90;6.07;;;;;;;;;;6279949;28;20197;-65
2023/06/15 04:24:27;;;;;;;7.00;6.37;;;;;;;;;;6275947;28;20251;-65
2023/06/15 04:27:29;;;;;;;6.73;6.03;;;;;;;;;;6297397;28;20204;-65
2023/06/15 04:30:31;;;;;;;7.80;7.00;;;;;;;;;;6275595;28;20202;-64
2023/06/15 04:33:32;;;;;;;7.33;6.60;;;;;;;;;;6284837;28;20206;-63
2023/06/15 04:36:38;;;;;;;9.33;6.50;;;;;;;;;;6294688;28;20296;-63
2023/06/15 04:39:40;;;;;;;7.13;6.53;;;;;;;;;;6269363;28;20197;-63
2023/06/15 04:42:42;;;;;;;7.10;6.50;;;;;;;;;;6289115;28;20233;-63
2023/06/15 04:45:43;;;;;;;6.97;6.13;;;;;;;;;;6273053;28;20241;-63
2023/06/15 04:48:44;;;;;;;10.67;7.00;;;;;;;;;;6277469;28;20193;-63
2023/06/15 04:51:45;;;;;;;9.83;6.27;;;;;;;;;;6297392;28;20215;-64
2023/06/15 04:54:46;;;;;;;7.27;6.33;;;;;;;;;;6286117;28;20220;-63
2023/06/15 04:57:47;;;;;;;7.27;6.57;;;;;;;;;;6286741;28;20273;-63
2023/06/15 05:00:48;;;;;;;7.77;6.53;;;;;;;;;;6273536;28;20213;-63
2023/06/15 05:03:50;;;;;;;8.33;6.93;;;;;;;;;;6281195;28;20191;-63
2023/06/15 05:06:51;;;;;;;8.77;6.83;;;;;;;;;;6282820;28;20193;-63
2023/06/15 05:09:52;;;;;;;6.50;5.90;;;;;;;;;;6279501;28;20196;-63
2023/06/15 05:12:53;;;;;;;7.27;6.53;;;;;;;;;;6268484;28;20193;-63
2023/06/15 05:15:54;;;;;;;6.93;6.23;;;;;;;;;;6283157;28;20221;-63
2023/06/15 05:18:56;;;;;;;8.97;6.57;;;;;;;;;;6282726;28;20262;-63
2023/06/15 05:22:03;;;;;;;6.90;6.20;;;;;;;;;;6285487;28;20264;-64
2023/06/15 05:25:05;;;;;;;8.27;6.77;;;;;;;;;;6283719;28;20190;-64
2023/06/15 05:28:06;;;;;;;7.20;6.40;;;;;;;;;;6282379;28;20182;-64
2023/06/15 05:31:08;;;;;;;7.23;6.53;;;;;;;;;;6302837;28;20193;-63
2023/06/15 05:34:09;;;;;;;7.50;5.80;;;;;;;;;;6274284;28;20458;-63
2023/06/15 05:37:10;;;;;;;6.70;6.10;;;;;;;;;;6283749;28;20269;-63
2023/06/15 05:40:12;;;;;;;6.67;6.07;;;;;;;;;;6281091;28;20232;-63
2023/06/15 05:43:13;;;;;;;7.37;6.67;;;;;;;;;;6284533;28;20191;-63
2023/06/15 05:46:15;;;;;;;6.73;5.87;;;;;;;;;;6279695;28;20246;-63
2023/06/15 05:49:16;;;;;;;6.43;5.83;;;;;;;;;;6272466;28;20199;-63
2023/06/15 05:52:17;;;;;;;7.00;6.30;;;;;;;;;;6284180;28;20207;-63
2023/06/15 05:55:18;;;;;;;6.93;6.30;;;;;;;;;;6283000;28;20194;-63
2023/06/15 05:58:19;;;;;;;7.70;7.00;;;;;;;;;;6287972;28;20200;-63
2023/06/15 06:01:20;;;;;;;7.33;6.57;;;;;;;;;;6275128;28;20199;-63
2023/06/15 06:04:21;;;;;;;7.27;6.53;;;;;;;;;;6283348;28;20189;-63
2023/06/15 06:07:24;;;;;;;7.60;6.00;;;;;;;;;;6287691;28;20197;-63
2023/06/15 06:10:25;;;;;;;6.47;5.87;;;;;;;;;;6279036;28;20197;-63
2023/06/15 06:13:26;;;;;;;7.07;6.37;;;;;;;;;;6287966;28;20508;-63
2023/06/15 06:16:27;;;;;;;7.40;5.87;;;;;;;;;;6275837;28;20262;-63
2023/06/15 06:19:28;;;;;;;6.63;6.03;;;;;;;;;;6278337;28;20195;-63
2023/06/15 06:22:30;;;;;;;7.37;6.20;;;;;;;;;;6265967;28;20193;-63
2023/06/15 06:25:31;;;;;;;6.53;5.90;;;;;;;;;;6274130;28;20293;-63
2023/06/15 06:28:32;;;;;;;6.93;6.33;;;;;;;;;;6285442;28;20196;-63
2023/06/15 06:31:33;;;;;;;7.43;5.90;;;;;;;;;;6273224;28;20220;-63
2023/06/15 06:34:37;;;;;;;6.80;5.77;;;;;;;;;;6272405;28;20280;-63
2023/06/15 06:37:38;;;;;;;5.83;5.33;;;;;;;;;;6266742;28;20209;-63
2023/06/15 06:40:39;;;;;;;8.27;5.80;;;;;;;;;;6275815;28;20217;-63
2023/06/15 06:43:40;;;;;;;7.03;5.93;;;;;;;;;;6276378;28;20220;-63
2023/06/15 06:46:41;;;;;;;6.33;5.73;;;;;;;;;;6278529;28;20245;-63
2023/06/15 06:49:42;;;;;;;6.13;5.40;;;;;;;;;;6276653;28;20193;-63
2023/06/15 06:52:43;;;;;;;6.93;5.60;;;;;;;;;;6284328;28;20197;-63
2023/06/15 06:55:45;;;;;;;5.87;5.37;;;;;;;;;;6277470;28;20204;-63
2023/06/15 06:58:46;;;;;;;6.80;6.07;;;;;;;;;;6277886;28;20203;-63
2023/06/15 07:01:47;;;;;;;7.17;5.80;;;;;;;;;;6282887;28;20221;-63
2023/06/15 07:04:48;;;;;;;5.50;5.10;;;;;;;;;;6284171;28;20234;-63
2023/06/15 07:07:49;;;;;;;6.63;5.93;;;;;;;;;;6278149;28;20202;-63
2023/06/15 07:10:50;;;;;;;5.87;5.37;;;;;;;;;;6281595;28;20189;-63
2023/06/15 07:13:51;;;;;;;6.80;6.20;;;;;;;;;;6285275;28;20204;-63
2023/06/15 07:16:52;;;;;;;6.40;5.80;;;;;;;;;;6303033;28;20216;-63
2023/06/15 07:19:53;;;;;;;7.33;5.30;;;;;;;;;;6282313;28;20224;-63
2023/06/15 07:22:54;;;;;;;7.57;5.80;;;;;;;;;;6276538;28;20219;-63
2023/06/15 07:25:55;;;;;;;7.10;6.47;;;;;;;;;;6300619;28;20196;-63
2023/06/15 07:28:56;;;;;;;8.90;6.57;;;;;;;;;;6292716;28;20208;-63
2023/06/15 07:31:57;;;;;;;7.00;6.30;;;;;;;;;;6287162;28;20279;-63
2023/06/15 07:34:58;;;;;;;8.67;6.67;;;;;;;;;;6292121;28;20258;-63
2023/06/15 07:37:59;;;;;;;6.93;6.23;;;;;;;;;;6282419;28;20216;-63
2023/06/15 07:41:00;;;;;;;6.40;5.90;;;;;;;;;;6289790;28;20653;-63
2023/06/15 07:44:01;;;;;;;8.10;6.13;;;;;;;;;;6295315;28;20186;-63
2023/06/15 07:47:03;;;;;;;5.93;5.43;;;;;;;;;;6282799;28;20185;-63
2023/06/15 07:50:04;;;;;;;7.27;5.77;;;;;;;;;;6277464;28;20189;-63
2023/06/15 07:53:05;;;;;;;6.87;5.93;;;;;;;;;;6288897;28;20193;-63
2023/06/15 07:56:06;;;;;;;5.80;5.30;;;;;;;;;;6286033;28;20202;-63
2023/06/15 07:59:07;;;;;;;6.63;5.50;;;;;;;;;;6277297;28;20231;-63
2023/06/15 08:02:08;;;;;;;6.63;5.63;;;;;;;;;;6288324;28;20192;-63
2023/06/15 08:05:09;;;;;;;6.13;5.53;;;;;;;;;;6293045;28;20283;-63
2023/06/15 08:08:11;;;;;;;7.57;6.07;;;;;;;;;;6276995;28;20198;-63
2023/06/15 08:11:13;;;;;;;6.20;5.60;;;;;;;;;;6301144;28;20184;-63
2023/06/15 08:14:14;;;;;;;6.57;5.97;;;;;;;;;;6266847;28;20195;-61
2023/06/15 08:17:15;;;;;;;6.70;5.40;;;;;;;;;;6285599;28;20212;-61
2023/06/15 08:20:16;;;;;;;6.10;5.60;;;;;;;;;;6281204;28;20201;-61
2023/06/15 08:23:17;;;;;;;5.90;5.40;;;;;;;;;;6288374;28;20204;-61
2023/06/15 08:26:18;;;;;;;6.40;5.70;;;;;;;;;;6275422;28;20229;-61
2023/06/15 08:29:20;;;;;;;6.47;5.10;;;;;;;;;;6287711;28;20193;-61
2023/06/15 08:32:21;;;;;;;9.70;5.83;;;;;;;;;;6276044;28;20222;-61
2023/06/15 08:35:22;;;;;;;6.57;5.70;;;;;;;;;;6277244;28;20197;-61
2023/06/15 08:38:23;;;;;;;7.53;6.00;;;;;;;;;;6283955;28;20184;-61
2023/06/15 08:41:26;;;;;;;6.07;5.57;;;;;;;;;;6273251;28;20197;-61
2023/06/15 08:44:28;;;;;;;6.50;5.90;;;;;;;;;;6285039;28;20233;-61
2023/06/15 08:47:29;;;;;;;8.17;6.17;;;;;;;;;;6284943;28;20196;-61
2023/06/15 08:50:30;;;;;;;6.33;5.80;;;;;;;;;;6275607;28;20255;-61
2023/06/15 08:53:32;;;;;;;6.03;5.43;;;;;;;;;;6274453;28;20189;-61
2023/06/15 08:56:37;;;;;;;7.20;6.17;;;;;;;;;;6276694;28;20225;-61
2023/06/15 08:59:38;;;;;;;7.27;5.37;;;;;;;;;;6286669;28;20288;-61
2023/06/15 09:02:47;;;;;;;7.30;5.67;;;;;;;;;;6274865;28;20194;-61
2023/06/15 09:05:48;;;;;;;6.33;5.73;;;;;;;;;;6284174;28;20259;-61
2023/06/15 09:08:51;;;;;;;7.20;5.67;;;;;;;;;;6279224;28;20229;-61
2023/06/15 09:11:52;;;;;;;5.93;5.20;;;;;;;;;;6295611;28;20189;-61
2023/06/15 09:14:53;;;;;;;7.40;5.43;;;;;;;;;;6298639;28;20225;-61
2023/06/15 09:17:55;;;;;;;5.50;4.93;;;;;;;;;;6281413;28;20214;-61
2023/06/15 09:21:00;;;;;;;6.97;4.73;;;;;;;;;;6297588;28;20185;-61
2023/06/15 09:24:04;;;;;;;5.87;5.30;;;;;;;;;;6282998;28;20190;-61
2023/06/15 09:27:15;;;;;;;6.03;5.43;;;;;;;;;;6276886;28;20277;-61
2023/06/15 09:30:17;;;;;;;7.60;5.73;;;;;;;;;;6276420;28;20202;-61
2023/06/15 09:33:19;;;;;;;6.10;5.50;;;;;;;;;;6260946;28;20208;-61
2023/06/15 09:36:20;;;;;;;6.10;5.50;;;;;;;;;;6279935;28;20230;-61
2023/06/15 09:39:24;;;;;;;5.70;4.53;;;;;;;;;;6276094;28;20282;-61
2023/06/15 09:42:26;;;;;;;5.57;4.93;;;;;;;;;;6286717;28;20191;-61
2023/06/15 09:45:27;;;;;;;5.37;4.87;;;;;;;;;;6294156;28;20229;-62
2023/06/15 09:48:31;;;;;;;5.50;5.00;;;;;;;;;;6263558;28;20193;-62
2023/06/15 09:51:36;;;;;;;5.60;5.00;;;;;;;;;;6273904;28;20233;-62
2023/06/15 09:54:37;;;;;;;5.60;5.10;;;;;;;;;;6276340;28;20182;-62
2023/06/15 09:57:38;;;;;;;6.20;4.27;;;;;;;;;;6283669;28;20235;-62
2023/06/15 10:00:39;;;;;;;5.07;4.67;;;;;;;;;;6282753;28;20241;-62
2023/06/15 10:03:43;;;;;;;5.50;5.00;;;;;;;;;;6273791;28;20239;-62
2023/06/15 10:06:46;;;;;;;5.73;5.20;;;;;;;;;;6280931;28;20197;-62
2023/06/15 10:09:48;;;;;;;5.27;4.80;;;;;;;;;;6274136;28;20205;-62
2023/06/15 10:12:51;;;;;;;5.83;4.53;;;;;;;;;;6293291;28;20196;-62
2023/06/15 10:15:55;;;;;;;6.73;4.70;;;;;;;;;;6282184;28;20293;-62
2023/06/15 10:19:04;;;;;;;4.67;3.93;;;;;;;;;;6289793;28;20186;-62
2023/06/15 10:22:07;;;;;;;4.60;4.20;;;;;;;;;;6289759;28;20186;-62
2023/06/15 10:25:08;;;;;;;5.23;4.73;;;;;;;;;;6284588;28;20208;-62
2023/06/15 10:28:11;;;;;;;5.10;4.47;;;;;;;;;;6286015;28;20212;-62
2023/06/15 10:31:35;;;;;;;5.60;4.73;;;;;;;;;;6277244;28;20229;-62
2023/06/15 10:34:39;;;;;;;4.90;4.47;;;;;;;;;;6274381;28;20201;-62
2023/06/15 10:38:13;;;;;;;4.93;4.43;;;;;;;;;;6277942;28;20210;-62
2023/06/15 10:41:15;;;;;;;5.13;4.63;;;;;;;;;;6272789;28;20284;-62
2023/06/15 10:44:16;;;;;;;4.47;4.10;;;;;;;;;;6295443;28;20332;-62
2023/06/15 10:47:20;;;;;;;5.23;4.67;;;;;;;;;;6285752;28;20271;-62
2023/06/15 10:50:21;;;;;;;5.17;4.67;;;;;;;;;;6284197;28;20193;-62
2023/06/15 10:53:23;;;;;;;5.30;4.10;;;;;;;;;;6291119;28;20200;-61
2023/06/15 10:56:28;;;;;;;5.93;4.70;;;;;;;;;;6292209;28;20217;-61
2023/06/15 10:59:39;;;;;;;5.27;4.60;;;;;;;;;;6288939;28;20268;-61
2023/06/15 11:02:51;;;;;;;5.70;4.17;;;;;;;;;;6286291;28;20186;-61
2023/06/15 11:06:07;;;;;;;4.87;4.40;;;;;;;;;;6280829;28;20218;-61
2023/06/15 11:09:13;;;;;;;12.53;4.70;;;;;;;;;;6284521;28;20281;-62
2023/06/15 11:12:36;;;;;;;4.73;4.20;;;;;;;;;;6276882;28;20239;-62
2023/06/15 11:15:37;;;;;;;5.73;4.23;;;;;;;;;;6292021;28;20259;-62
2023/06/15 11:18:55;;;;;;;6.23;4.80;;;;;;;;;;6285448;28;20185;-62
2023/06/15 11:22:05;;;;;;;6.10;4.57;;;;;;;;;;6300165;28;20182;-63
2023/06/15 11:25:06;;;;;;;5.53;4.60;;;;;;;;;;6293193;28;20197;-63
2023/06/15 11:28:07;;;;;;;6.10;4.27;;;;;;;;;;6286690;28;20192;-62
2023/06/15 11:31:08;;;;;;;4.40;4.00;;;;;;;;;;6289201;28;20200;-62
2023/06/15 11:34:10;;;;;;;4.97;4.47;;;;;;;;;;6260965;28;20244;-62
2023/06/15 11:37:12;;;;;;;5.17;4.53;;;;;;;;;;6264593;28;20217;-61
2023/06/15 11:40:16;;;;;;;5.93;4.80;;;;;;;;;;6267695;28;20190;-62
2023/06/15 11:43:17;;;;;;;5.37;4.60;;;;;;;;;;6293693;28;20198;-62
2023/06/15 11:46:22;;;;;;;5.30;4.30;;;;;;;;;;6282934;28;20335;-62
2023/06/15 11:49:23;;;;;;;4.50;4.10;;;;;;;;;;6291224;28;20201;-62
2023/06/15 11:52:24;;;;;;;5.03;4.40;;;;;;;;;;6296191;28;20204;-62
2023/06/15 11:55:25;;;;;;;4.53;4.13;;;;;;;;;;6283976;28;20242;-62
2023/06/15 11:58:27;;;;;;;4.77;4.33;;;;;;;;;;6281093;28;20196;-62
2023/06/15 12:01:28;;;;;;;5.73;4.20;;;;;;;;;;6278960;28;20184;-62
2023/06/15 12:04:32;;;;;;;4.10;3.80;;;;;;;;;;6283759;28;20192;-62
2023/06/15 12:07:35;;;;;;;4.27;3.97;;;;;;;;;;6287855;28;20192;-62
2023/06/15 12:10:37;;;;;;;4.07;3.70;;;;;;;;;;6281350;28;20197;-62
2023/06/15 12:13:39;;;;;;;6.33;4.17;;;;;;;;;;6296418;28;20283;-62
2023/06/15 12:16:40;;;;;;;5.97;4.53;;;;;;;;;;6282512;28;20213;-62
2023/06/15 12:19:42;;;;;;;4.67;4.23;;;;;;;;;;6278857;28;20190;-61
2023/06/15 12:22:44;;;;;;;3.90;3.60;;;;;;;;;;6273622;28;20200;-61
2023/06/15 12:25:46;;;;;;;4.67;4.27;;;;;;;;;;6291518;28;20326;-62
2023/06/15 12:28:50;;;;;;;4.30;3.17;;;;;;;;;;6277852;28;20215;-62
2023/06/15 12:31:55;;;;;;;4.20;3.80;;;;;;;;;;6282825;28;20185;-62
2023/06/15 12:34:56;;;;;;;4.13;3.73;;;;;;;;;;6292470;28;20190;-62
2023/06/15 12:37:57;;;;;;;4.27;3.83;;;;;;;;;;6281035;28;20205;-62
2023/06/15 12:40:58;;;;;;;4.70;4.20;;;;;;;;;;6297907;28;20197;-62
2023/06/15 12:44:00;;;;;;;4.40;4.07;;;;;;;;;;6273869;28;20194;-62
2023/06/15 12:47:01;;;;;;;4.70;4.17;;;;;;;;;;6277897;28;20304;-62
2023/06/15 12:50:02;;;;;;;7.20;3.70;;;;;;;;;;6284992;28;20223;-62
2023/06/15 12:53:03;;;;;;;4.57;4.17;;;;;;;;;;6277178;28;20198;-62
2023/06/15 12:56:05;;;;;;;6.07;4.23;;;;;;;;;;6282877;28;20220;-62
2023/06/15 12:59:06;;;;;;;4.63;4.23;;;;;;;;;;6273120;28;20189;-62
2023/06/15 13:02:07;;;;;;;4.60;4.20;;;;;;;;;;6281422;28;20211;-62
2023/06/15 13:05:09;;;;;;;3.90;3.57;;;;;;;;;;6296852;28;20197;-62
2023/06/15 13:08:11;;;;;;;4.30;3.90;;;;;;;;;;6291066;28;20235;-61
2023/06/15 13:11:12;;;;;;;4.50;4.10;;;;;;;;;;6287567;28;20217;-62
2023/06/15 13:14:13;;;;;;;5.23;3.90;;;;;;;;;;6288787;28;20223;-62
2023/06/15 13:17:14;;;;;;;4.70;4.30;;;;;;;;;;6281558;28;20240;-63
2023/06/15 13:20:15;;;;;;;8.13;4.53;;;;;;;;;;6276582;28;20217;-62
2023/06/15 13:23:16;;;;;;;6.53;4.67;;;;;;;;;;6278696;28;20186;-62
2023/06/15 13:26:17;;;;;;;5.27;4.87;;;;;;;;;;6282922;28;20203;-62
2023/06/15 13:29:18;;;;;;;4.83;4.43;;;;;;;;;;6277471;28;20212;-62
2023/06/15 13:32:19;;;;;;;5.20;4.70;;;;;;;;;;6272624;28;20201;-62
2023/06/15 13:35:21;;;;;;;5.07;4.67;;;;;;;;;;6271696;28;20227;-62
2023/06/15 13:38:22;;;;;;;4.43;4.10;;;;;;;;;;6275113;28;20217;-62
2023/06/15 13:41:23;;;;;;;4.83;4.43;;;;;;;;;;6278796;28;20197;-63
2023/06/15 13:44:24;;;;;;;6.17;4.40;;;;;;;;;;6288042;28;20225;-63
2023/06/15 13:47:25;;;;;;;4.20;3.90;;;;;;;;;;6281069;28;20204;-63
2023/06/15 13:50:27;;;;;;;4.77;4.33;;;;;;;;;;6275226;28;20235;-63
2023/06/15 13:53:28;;;;;;;4.43;3.90;;;;;;;;;;6297357;28;20184;-63
2023/06/15 13:56:29;;;;;;;4.90;4.50;;;;;;;;;;6280356;28;20212;-63
2023/06/15 13:59:30;;;;;;;4.43;4.03;;;;;;;;;;6289773;28;20272;-63
2023/06/15 14:02:31;;;;;;;5.17;4.03;;;;;;;;;;6279383;28;20181;-63
2023/06/15 14:05:33;;;;;;;4.70;4.30;;;;;;;;;;6279201;28;20184;-63
2023/06/15 14:08:34;;;;;;;6.03;4.73;;;;;;;;;;6284293;28;20181;-63
2023/06/15 14:11:35;;;;;;;4.70;4.30;;;;;;;;;;6282683;28;20211;-63
2023/06/15 14:14:36;;;;;;;4.83;4.33;;;;;;;;;;6275450;28;20177;-63
2023/06/15 14:17:38;;;;;;;6.13;4.43;;;;;;;;;;6267963;28;20204;-63
2023/06/15 14:20:39;;;;;;;5.30;4.80;;;;;;;;;;6277508;28;20189;-63
2023/06/15 14:23:40;;;;;;;4.93;4.43;;;;;;;;;;6283797;28;20185;-63
2023/06/15 14:26:41;;;;;;;5.17;4.70;;;;;;;;;;6280243;28;20215;-62
2023/06/15 14:29:45;;;;;;;5.47;4.87;;;;;;;;;;6294463;28;20184;-62
2023/06/15 14:32:46;;;;;;;4.80;4.40;;;;;;;;;;6282108;28;20212;-62
2023/06/15 14:35:48;;;;;;;5.07;4.27;;;;;;;;;;6274127;28;20427;-62
2023/06/15 14:38:49;;;;;;;5.33;4.47;;;;;;;;;;6273922;28;20216;-62
2023/06/15 14:41:50;;;;;;;5.20;4.70;;;;;;;;;;6270868;28;20257;-62
2023/06/15 14:44:51;;;;;;;5.03;4.50;;;;;;;;;;6277195;28;20320;-62
2023/06/15 14:47:52;;;;;;;5.23;4.80;;;;;;;;;;6274183;28;20188;-62
2023/06/15 14:50:53;;;;;;;5.33;4.50;;;;;;;;;;6285623;28;20200;-62
2023/06/15 14:53:55;;;;;;;5.13;4.63;;;;;;;;;;6275901;28;20190;-62
2023/06/15 14:56:58;;;;;;;5.40;4.97;;;;;;;;;;6291132;28;20197;-62
2023/06/15 14:59:59;;;;;;;5.57;4.60;;;;;;;;;;6278702;28;20190;-62
2023/06/15 15:03:00;;;;;;;6.27;4.87;;;;;;;;;;6280411;28;20273;-62
2023/06/15 15:06:02;;;;;;;5.03;4.53;;;;;;;;;;6279153;28;20186;-62
2023/06/15 15:09:03;;;;;;;5.07;4.57;;;;;;;;;;6277373;28;20201;-62
2023/06/15 15:12:05;;;;;;;5.40;4.90;;;;;;;;;;6272045;28;20193;-62
2023/06/15 15:15:07;;;;;;;4.90;4.50;;;;;;;;;;6277804;28;20182;-62
2023/06/15 15:18:08;;;;;;;5.27;4.77;;;;;;;;;;6282138;28;20201;-62
2023/06/15 15:21:09;;;;;;;5.83;5.03;;;;;;;;;;6273748;28;20198;-62
2023/06/15 15:24:10;;;;;;;5.23;4.73;;;;;;;;;;6288445;28;20224;-62
2023/06/15 15:27:12;;;;;;;5.40;4.90;;;;;;;;;;6296700;28;20184;-62
2023/06/15 15:30:13;;;;;;;4.83;4.43;;;;;;;;;;6289593;28;20235;-62
2023/06/15 15:33:14;;;;;;;4.97;4.10;;;;;;;;;;6289904;28;20185;-62
2023/06/15 15:36:16;;;;;;;5.07;4.43;;;;;;;;;;6285338;28;20331;-62
2023/06/15 15:39:17;;;;;;;5.70;4.57;;;;;;;;;;6281366;28;20180;-62
2023/06/15 15:42:18;;;;;;;5.90;4.50;;;;;;;;;;6282006;28;20184;-62
2023/06/15 15:45:19;;;;;;;4.73;4.33;;;;;;;;;;6278273;28;20233;-63
2023/06/15 15:48:20;;;;;;;4.47;4.17;;;;;;;;;;6282291;28;20236;-62
2023/06/15 15:51:21;;;;;;;5.43;4.37;;;;;;;;;;6285430;28;20209;-63
2023/06/15 15:54:22;;;;;;;5.23;4.77;;;;;;;;;;6280467;28;20211;-63
2023/06/15 15:57:23;;;;;;;4.83;4.33;;;;;;;;;;6278837;28;20219;-63
2023/06/15 16:00:25;;;;;;;4.80;4.40;;;;;;;;;;6275256;28;20185;-63
2023/06/15 16:03:26;;;;;;;5.27;4.20;;;;;;;;;;6295603;28;20259;-63
2023/06/15 16:06:27;;;;;;;4.67;4.27;;;;;;;;;;6283822;28;20199;-63
2023/06/15 16:09:28;;;;;;;5.30;4.80;;;;;;;;;;6281421;28;20193;-63
2023/06/15 16:12:29;;;;;;;4.73;4.33;;;;;;;;;;6275700;28;20280;-63
2023/06/15 16:15:30;;;;;;;4.97;4.57;;;;;;;;;;6281884;28;20189;-63
2023/06/15 16:18:31;;;;;;;4.70;4.30;;;;;;;;;;6282756;28;20216;-63
2023/06/15 16:21:33;;;;;;;5.50;4.70;;;;;;;;;;6276171;28;20210;-63
2023/06/15 16:24:34;;;;;;;4.50;4.10;;;;;;;;;;6277402;28;20200;-63
2023/06/15 16:27:35;;;;;;;5.57;4.30;;;;;;;;;;6288155;28;20196;-64
2023/06/15 16:30:36;;;;;;;5.07;4.67;;;;;;;;;;6287516;28;20201;-63
2023/06/15 16:33:37;;;;;;;4.37;4.00;;;;;;;;;;6281382;28;20203;-64
2023/06/15 16:36:38;;;;;;;4.60;4.20;;;;;;;;;;6284898;28;20216;-64
2023/06/15 16:39:42;;;;;;;4.30;3.90;;;;;;;;;;6272701;28;20201;-63
2023/06/15 16:42:43;;;;;;;4.87;4.30;;;;;;;;;;6276836;28;20186;-64
2023/06/15 16:45:44;;;;;;;4.63;4.23;;;;;;;;;;6285198;28;20240;-63
2023/06/15 16:48:46;;;;;;;4.23;3.80;;;;;;;;;;6273471;28;20191;-63
2023/06/15 16:51:47;;;;;;;5.00;4.00;;;;;;;;;;6274687;28;20186;-63
2023/06/15 16:54:48;;;;;;;5.17;4.67;;;;;;;;;;6273235;28;20208;-63
2023/06/15 16:57:50;;;;;;;7.27;4.90;;;;;;;;;;6274570;28;20215;-63
2023/06/15 17:00:51;;;;;;;5.23;4.83;;;;;;;;;;6284387;28;20207;-63
2023/06/15 17:03:52;;;;;;;5.53;4.50;;;;;;;;;;6295946;28;20184;-63
2023/06/15 17:06:56;;;;;;;5.60;4.23;;;;;;;;;;6292330;28;20236;-63
2023/06/15 17:09:57;;;;;;;5.80;4.77;;;;;;;;;;6290202;28;20224;-63
2023/06/15 17:12:59;;;;;;;6.67;4.87;;;;;;;;;;6281701;28;20197;-63
2023/06/15 17:16:00;;;;;;;5.40;4.17;;;;;;;;;;6273583;28;20648;-63
2023/06/15 17:19:01;;;;;;;5.30;4.80;;;;;;;;;;6276826;28;20177;-63
2023/06/15 17:22:02;;;;;;;4.93;4.43;;;;;;;;;;6281726;28;20194;-63
2023/06/15 17:25:03;;;;;;;8.20;4.90;;;;;;;;;;6283611;28;20194;-63
2023/06/15 17:28:05;;;;;;;5.70;5.13;;;;;;;;;;6311013;28;20197;-63
2023/06/15 17:31:06;;;;;;;5.33;4.83;;;;;;;;;;6297363;28;20185;-63
2023/06/15 17:34:07;;;;;;;6.80;4.60;;;;;;;;;;6280857;28;20196;-63
2023/06/15 17:37:08;;;;;;;4.50;4.10;;;;;;;;;;6290466;28;20200;-63
2023/06/15 17:40:09;;;;;;;5.53;4.27;;;;;;;;;;6290955;28;20272;-63
2023/06/15 17:43:10;;;;;;;7.20;4.87;;;;;;;;;;6288057;28;20259;-63
2023/06/15 17:46:12;;;;;;;5.03;4.60;;;;;;;;;;6279182;28;20418;-63
2023/06/15 17:49:13;;;;;;;8.57;5.00;;;;;;;;;;6285001;28;20197;-64
2023/06/15 17:52:14;;;;;;;9.30;5.23;;;;;;;;;;6274603;28;20202;-63
2023/06/15 17:55:15;;;;;;;7.03;5.40;;;;;;;;;;6288313;28;20203;-63
2023/06/15 17:58:17;;;;;;;7.33;5.80;;;;;;;;;;6283802;28;20208;-63
2023/06/15 18:01:18;;;;;;;7.50;5.43;;;;;;;;;;6287918;28;20177;-63
2023/06/15 18:04:19;;;;;;;7.23;5.30;;;;;;;;;;6289171;28;20212;-63
2023/06/15 18:07:20;;;;;;;9.70;6.07;;;;;;;;;;6284962;28;20255;-63
2023/06/15 18:10:23;;;;;;;8.83;6.47;;;;;;;;;;6277886;28;20291;-64